createdAt,value
2022-09-24T00:02:15.172Z,12.20
2022-09-24T00:04:43.136Z,12.40
2022-09-24T00:07:11.097Z,12.40
2022-09-24T00:09:39.036Z,12.30
2022-09-24T00:12:08.462Z,12.10
2022-09-24T00:14:36.435Z,12.00
2022-09-24T00:17:04.387Z,12.20
2022-09-24T00:19:32.567Z,12.10
2022-09-24T00:22:00.582Z,12.30
2022-09-24T00:24:46.061Z,12.20
2022-09-24T00:27:15.387Z,12.30
2022-09-24T00:29:43.352Z,12.10
2022-09-24T00:32:13.413Z,12.10
2022-09-24T00:34:41.401Z,11.90
2022-09-24T00:37:09.412Z,11.80
2022-09-24T00:39:37.682Z,11.80
2022-09-24T00:42:06.119Z,11.70
2022-09-24T00:44:54.877Z,11.80
2022-09-24T00:47:40.487Z,11.50
2022-09-24T00:50:16.978Z,11.60
2022-09-24T00:52:51.772Z,11.80
2022-09-24T00:55:22.153Z,11.90
2022-09-24T00:57:52.608Z,11.70
2022-09-24T01:00:22.249Z,11.80
2022-09-24T01:02:56.585Z,11.80
2022-09-24T01:05:24.711Z,11.70
2022-09-24T01:07:52.681Z,11.80
2022-09-24T01:10:51.166Z,11.90
2022-09-24T01:13:55.264Z,11.90
2022-09-24T01:16:34.875Z,12.00
2022-09-24T01:19:21.606Z,12.00
2022-09-24T01:21:55.215Z,11.80
2022-09-24T01:24:41.039Z,11.70
2022-09-24T01:27:16.802Z,11.70
2022-09-24T01:30:01.560Z,11.70
2022-09-24T01:32:38.042Z,11.50
2022-09-24T01:35:13.889Z,11.60
2022-09-24T01:37:46.047Z,11.50
2022-09-24T01:40:16.017Z,11.50
2022-09-24T01:42:46.143Z,11.40
2022-09-24T01:45:17.331Z,11.50
2022-09-24T01:47:45.829Z,11.60
2022-09-24T01:50:17.577Z,11.70
2022-09-24T01:52:53.619Z,11.70
2022-09-24T01:55:27.162Z,11.70
2022-09-24T01:58:02.058Z,11.70
2022-09-24T02:00:32.247Z,11.70
2022-09-24T02:03:08.719Z,11.70
2022-09-24T02:05:42.773Z,11.60
2022-09-24T02:08:15.999Z,11.40
2022-09-24T02:10:50.567Z,11.20
2022-09-24T02:13:20.642Z,11.10
2022-09-24T02:15:52.367Z,11.10
2022-09-24T02:18:24.983Z,11.20
2022-09-24T02:20:53.896Z,11.10
2022-09-24T02:23:21.948Z,11.20
2022-09-24T02:25:55.609Z,11.10
2022-09-24T02:28:23.603Z,11.10
2022-09-24T02:31:00.339Z,11.20
2022-09-24T02:33:49.174Z,11.30
2022-09-24T02:36:18.184Z,11.30
2022-09-24T02:38:47.192Z,11.10
2022-09-24T02:41:15.732Z,11.00
2022-09-24T02:43:44.334Z,10.90
2022-09-24T02:46:13.630Z,10.90
2022-09-24T02:48:41.672Z,11.00
2022-09-24T02:51:09.747Z,10.90
2022-09-24T02:53:37.717Z,10.80
2022-09-24T02:56:07.978Z,10.80
2022-09-24T02:58:37.498Z,10.90
2022-09-24T03:01:06.058Z,10.90
2022-09-24T03:03:35.655Z,10.60
2022-09-24T03:06:03.629Z,10.70
2022-09-24T03:08:33.023Z,10.70
2022-09-24T03:11:01.038Z,10.70
2022-09-24T03:13:29.127Z,10.80
2022-09-24T03:15:57.380Z,10.70
2022-09-24T03:18:25.525Z,10.70
2022-09-24T03:21:00.143Z,10.80
2022-09-24T03:23:28.552Z,10.70
2022-09-24T03:25:58.870Z,10.70
2022-09-24T03:28:28.149Z,10.60
2022-09-24T03:31:01.782Z,10.70
2022-09-24T03:33:33.380Z,10.60
2022-09-24T03:36:05.694Z,10.60
2022-09-24T03:38:34.430Z,10.40
2022-09-24T03:41:02.976Z,10.50
2022-09-24T03:43:31.328Z,10.50
2022-09-24T03:45:59.937Z,10.40
2022-09-24T03:48:29.794Z,10.60
2022-09-24T03:50:58.016Z,10.70
2022-09-24T03:53:27.352Z,10.60
2022-09-24T03:55:57.724Z,10.60
2022-09-24T03:58:26.726Z,10.60
2022-09-24T04:00:55.047Z,10.60
2022-09-24T04:03:23.714Z,10.80
2022-09-24T04:05:52.180Z,10.80
2022-09-24T04:08:20.403Z,10.70
2022-09-24T04:10:51.428Z,10.50
2022-09-24T04:13:20.543Z,10.50
2022-09-24T04:15:51.678Z,10.60
2022-09-24T04:18:19.780Z,10.60
2022-09-24T04:20:47.895Z,10.70
2022-09-24T04:23:16.433Z,10.70
2022-09-24T04:25:44.980Z,10.50
2022-09-24T04:28:14.362Z,10.50
2022-09-24T04:30:42.663Z,10.50
2022-09-24T04:33:10.724Z,10.50
2022-09-24T04:35:38.745Z,10.70
2022-09-24T04:38:07.030Z,10.70
2022-09-24T04:40:35.298Z,10.60
2022-09-24T04:43:06.032Z,10.40
2022-09-24T04:45:35.654Z,10.40
2022-09-24T04:48:03.697Z,10.40
2022-09-24T04:50:33.677Z,10.40
2022-09-24T04:53:03.015Z,10.50
2022-09-24T04:55:32.100Z,10.60
2022-09-24T04:58:00.568Z,10.60
2022-09-24T05:00:28.579Z,10.60
2022-09-24T05:03:00.267Z,10.40
2022-09-24T05:05:28.996Z,10.30
2022-09-24T05:07:58.546Z,10.20
2022-09-24T05:10:27.812Z,10.10
2022-09-24T05:12:56.515Z,10.20
2022-09-24T05:15:24.476Z,10.20
2022-09-24T05:17:52.525Z,10.20
2022-09-24T05:20:22.166Z,10.40
2022-09-24T05:22:51.059Z,10.00
2022-09-24T05:25:21.509Z,9.80
2022-09-24T05:27:50.874Z,9.90
2022-09-24T05:30:22.085Z,10.10
2022-09-24T05:32:52.295Z,10.10
2022-09-24T05:35:23.898Z,9.90
2022-09-24T05:37:53.380Z,10.10
2022-09-24T05:40:40.230Z,10.10
2022-09-24T05:43:08.426Z,10.20
2022-09-24T05:45:36.915Z,10.20
2022-09-24T05:48:05.507Z,10.20
2022-09-24T05:50:35.448Z,9.90
2022-09-24T05:53:04.224Z,9.90
2022-09-24T05:55:32.961Z,10.00
2022-09-24T05:58:07.172Z,9.90
2022-09-24T06:00:36.450Z,10.00
2022-09-24T06:03:07.744Z,10.10
2022-09-24T06:05:37.683Z,9.90
2022-09-24T06:08:08.057Z,10.10
2022-09-24T06:10:37.408Z,10.10
2022-09-24T06:13:05.880Z,10.20
2022-09-24T06:15:34.970Z,10.30
2022-09-24T06:18:03.457Z,10.40
2022-09-24T06:20:31.528Z,10.60
2022-09-24T06:23:02.904Z,10.70
2022-09-24T06:25:32.001Z,10.70
2022-09-24T06:28:03.823Z,10.90
2022-09-24T06:30:35.234Z,11.00
2022-09-24T06:33:05.449Z,11.00
2022-09-24T06:35:36.189Z,11.10
2022-09-24T06:38:06.313Z,11.20
2022-09-24T06:40:37.567Z,11.20
2022-09-24T06:43:06.603Z,11.30
2022-09-24T06:45:34.848Z,11.40
2022-09-24T06:48:05.709Z,11.50
2022-09-24T06:50:36.090Z,11.60
2022-09-24T06:53:08.206Z,11.80
2022-09-24T06:55:37.070Z,11.90
2022-09-24T06:58:08.144Z,12.00
2022-09-24T07:00:37.548Z,12.00
2022-09-24T07:03:07.662Z,12.00
2022-09-24T07:05:40.927Z,12.10
2022-09-24T07:08:12.885Z,12.10
2022-09-24T07:10:44.839Z,12.50
2022-09-24T07:13:14.269Z,12.70
2022-09-24T07:15:42.778Z,13.00
2022-09-24T07:18:11.527Z,13.20
2022-09-24T07:20:39.910Z,13.50
2022-09-24T07:23:11.612Z,14.00
2022-09-24T07:25:40.777Z,14.40
2022-09-24T07:28:11.558Z,14.60
2022-09-24T07:30:40.338Z,14.60
2022-09-24T07:33:09.093Z,15.20
2022-09-24T07:35:39.447Z,15.90
2022-09-24T07:38:12.418Z,16.50
2022-09-24T07:40:40.745Z,17.40
2022-09-24T07:43:12.331Z,18.60
2022-09-24T07:45:40.652Z,19.20
2022-09-24T07:48:10.401Z,19.90
2022-09-24T07:50:41.374Z,20.40
2022-09-24T07:53:12.869Z,20.20
2022-09-24T07:55:41.629Z,19.10
2022-09-24T07:58:13.587Z,18.70
2022-09-24T08:00:41.678Z,18.10
2022-09-24T08:03:09.682Z,17.90
2022-09-24T08:05:45.253Z,17.90
2022-09-24T08:08:15.786Z,17.40
2022-09-24T08:10:44.698Z,17.30
2022-09-24T08:13:12.714Z,17.20
2022-09-24T08:15:41.397Z,16.90
2022-09-24T08:18:09.632Z,16.50
2022-09-24T08:20:39.095Z,16.40
2022-09-24T08:23:10.501Z,16.20
2022-09-24T08:25:39.849Z,16.90
2022-09-24T08:28:10.545Z,18.10
2022-09-24T08:30:39.860Z,19.10
2022-09-24T08:33:08.022Z,20.20
2022-09-24T08:35:36.320Z,20.30
2022-09-24T08:38:04.845Z,19.80
2022-09-24T08:40:39.280Z,19.20
2022-09-24T08:43:20.945Z,19.10
2022-09-24T08:46:13.387Z,19.30
2022-09-24T08:48:45.933Z,19.60
2022-09-24T08:51:18.254Z,21.00
2022-09-24T08:53:51.587Z,21.50
2022-09-24T08:56:27.222Z,22.40
2022-09-24T08:59:01.351Z,22.30
2022-09-24T09:01:42.000Z,21.90
2022-09-24T09:04:26.085Z,21.70
2022-09-24T09:07:08.921Z,20.80
2022-09-24T09:09:47.474Z,20.40
2022-09-24T09:12:24.316Z,19.70
2022-09-24T09:15:00.545Z,19.90
2022-09-24T09:17:42.397Z,20.10
2022-09-24T09:20:17.600Z,19.10
2022-09-24T09:22:49.825Z,18.70
2022-09-24T09:25:25.162Z,18.20
2022-09-24T09:28:01.305Z,18.30
2022-09-24T09:30:43.350Z,18.60
2022-09-24T09:33:29.617Z,18.90
2022-09-24T09:36:07.771Z,19.10
2022-09-24T09:38:44.775Z,19.20
2022-09-24T09:41:21.764Z,19.00
2022-09-24T09:43:51.345Z,19.10
2022-09-24T09:46:27.284Z,19.40
2022-09-24T09:48:59.838Z,20.30
2022-09-24T09:51:33.165Z,20.80
2022-09-24T09:54:04.272Z,20.90
2022-09-24T09:56:36.182Z,20.80
2022-09-24T09:59:15.187Z,21.20
2022-09-24T10:01:46.071Z,21.30
2022-09-24T10:04:32.784Z,21.10
2022-09-24T10:07:10.269Z,20.70
2022-09-24T10:09:39.931Z,20.90
2022-09-24T10:12:10.534Z,20.90
2022-09-24T10:14:39.854Z,20.60
2022-09-24T10:17:08.049Z,21.10
2022-09-24T10:19:38.989Z,22.10
2022-09-24T10:22:17.092Z,22.80
2022-09-24T10:24:45.599Z,23.20
2022-09-24T10:27:15.113Z,23.70
2022-09-24T10:30:01.920Z,24.20
2022-09-24T10:32:30.536Z,24.60
2022-09-24T10:35:00.427Z,24.80
2022-09-24T10:37:29.361Z,25.30
2022-09-24T10:40:02.752Z,24.80
2022-09-24T10:42:32.178Z,24.80
2022-09-24T10:45:03.458Z,25.10
2022-09-24T10:47:42.063Z,24.80
2022-09-24T10:50:28.769Z,24.60
2022-09-24T10:53:02.038Z,24.60
2022-09-24T10:55:52.366Z,24.40
2022-09-24T10:58:49.039Z,24.40
2022-09-24T11:01:24.502Z,24.60
2022-09-24T11:04:18.261Z,24.60
2022-09-24T11:07:10.859Z,24.30
2022-09-24T11:09:50.259Z,24.50
2022-09-24T11:12:29.395Z,23.50
2022-09-24T11:15:17.388Z,23.00
2022-09-24T11:18:03.231Z,22.70
2022-09-24T11:20:36.572Z,22.30
2022-09-24T11:23:36.900Z,22.40
2022-09-24T11:26:18.530Z,22.30
2022-09-24T11:29:15.042Z,21.70
2022-09-24T11:31:48.628Z,21.10
2022-09-24T11:34:53.367Z,21.00
2022-09-24T11:37:40.259Z,21.00
2022-09-24T11:40:35.328Z,20.50
2022-09-24T11:43:34.723Z,20.70
2022-09-24T11:46:22.730Z,20.70
2022-09-24T11:49:26.792Z,20.60
2022-09-24T11:52:01.751Z,20.80
2022-09-24T11:54:35.680Z,20.90
2022-09-24T11:57:12.714Z,20.80
2022-09-24T11:59:48.204Z,20.70
2022-09-24T12:02:21.841Z,20.70
2022-09-24T12:05:00.764Z,20.80
2022-09-24T12:07:35.672Z,21.00
2022-09-24T12:10:25.991Z,21.10
2022-09-24T12:13:04.259Z,21.10
2022-09-24T12:15:44.862Z,21.00
2022-09-24T12:18:20.289Z,20.80
2022-09-24T12:20:54.042Z,20.60
2022-09-24T12:23:29.237Z,20.50
2022-09-24T12:26:00.346Z,20.50
2022-09-24T12:28:57.697Z,20.70
2022-09-24T12:31:49.550Z,20.90
2022-09-24T12:34:24.955Z,20.70
2022-09-24T12:37:01.383Z,20.50
2022-09-24T12:39:37.211Z,20.50
2022-09-24T12:42:09.535Z,20.60
2022-09-24T12:44:45.662Z,20.70
2022-09-24T12:47:21.400Z,20.50
2022-09-24T12:49:57.857Z,20.80
2022-09-24T12:52:33.805Z,20.70
2022-09-24T12:55:04.473Z,20.40
2022-09-24T12:57:37.175Z,20.40
2022-09-24T13:00:48.218Z,20.40
2022-09-24T13:03:34.935Z,20.40
2022-09-24T13:06:04.185Z,20.10
2022-09-24T13:08:41.259Z,20.00
2022-09-24T13:11:31.882Z,19.70
2022-09-24T13:14:21.576Z,19.50
2022-09-24T13:16:53.278Z,19.50
2022-09-24T13:19:31.443Z,19.70
2022-09-24T13:22:01.704Z,19.60
2022-09-24T13:24:37.165Z,19.50
2022-09-24T13:27:25.606Z,19.50
2022-09-24T13:30:16.127Z,19.80
2022-09-24T13:32:50.800Z,19.70
2022-09-24T13:35:24.682Z,19.60
2022-09-24T13:37:58.752Z,19.60
2022-09-24T13:40:35.682Z,19.80
2022-09-24T13:43:11.758Z,19.90
2022-09-24T13:45:43.717Z,20.00
2022-09-24T13:48:23.401Z,19.80
2022-09-24T13:50:53.402Z,19.60
2022-09-24T13:53:31.150Z,19.60
2022-09-24T13:56:04.874Z,19.60
2022-09-24T13:58:35.091Z,19.60
2022-09-24T14:01:11.857Z,19.50
2022-09-24T14:03:41.750Z,19.50
2022-09-24T14:06:16.263Z,19.60
2022-09-24T14:08:46.786Z,19.60
2022-09-24T14:11:19.768Z,19.60
2022-09-24T14:13:48.188Z,19.40
2022-09-24T14:16:20.130Z,19.40
2022-09-24T14:18:49.051Z,19.60
2022-09-24T14:21:24.254Z,19.60
2022-09-24T14:23:57.744Z,19.50
2022-09-24T14:26:32.371Z,19.50
2022-09-24T14:29:05.526Z,19.50
2022-09-24T14:31:33.755Z,19.30
2022-09-24T14:34:06.078Z,19.20
2022-09-24T14:36:37.045Z,19.40
2022-09-24T14:39:07.023Z,19.50
2022-09-24T14:41:37.683Z,19.50
2022-09-24T14:44:11.031Z,19.50
2022-09-24T14:46:48.563Z,19.40
2022-09-24T14:49:22.250Z,19.50
2022-09-24T14:51:56.401Z,19.60
2022-09-24T14:54:32.110Z,19.60
2022-09-24T14:57:13.391Z,19.60
2022-09-24T14:59:42.770Z,19.30
2022-09-24T15:02:21.302Z,19.30
2022-09-24T15:04:53.283Z,19.40
2022-09-24T15:07:25.592Z,19.60
2022-09-24T15:09:56.910Z,19.80
2022-09-24T15:12:31.685Z,19.70
2022-09-24T15:15:01.779Z,19.80
2022-09-24T15:17:33.078Z,19.80
2022-09-24T15:20:01.502Z,19.70
2022-09-24T15:22:31.512Z,19.70
2022-09-24T15:25:02.201Z,19.80
2022-09-24T15:27:33.810Z,19.60
2022-09-24T15:30:04.678Z,19.50
2022-09-24T15:32:35.027Z,19.60
2022-09-24T15:35:08.319Z,19.70
2022-09-24T15:37:39.713Z,19.50
2022-09-24T15:40:16.730Z,19.40
2022-09-24T15:42:46.169Z,19.40
2022-09-24T15:45:19.330Z,19.40
2022-09-24T15:47:47.274Z,19.40
2022-09-24T15:50:15.722Z,19.30
2022-09-24T15:52:48.820Z,19.10
2022-09-24T15:55:19.855Z,19.00
2022-09-24T15:57:49.337Z,19.00
2022-09-24T16:00:19.998Z,18.90
2022-09-24T16:02:51.116Z,18.60
2022-09-24T16:05:20.131Z,18.40
2022-09-24T16:07:48.456Z,18.40
2022-09-24T16:10:17.941Z,18.20
2022-09-24T16:12:45.938Z,18.10
2022-09-24T16:15:17.032Z,18.10
2022-09-24T16:17:45.350Z,18.10
2022-09-24T16:20:13.548Z,17.90
2022-09-24T16:22:41.494Z,17.90
2022-09-24T16:25:09.894Z,17.90
2022-09-24T16:27:38.593Z,17.90
2022-09-24T16:30:08.576Z,18.00
2022-09-24T16:32:38.001Z,17.80
2022-09-24T16:35:07.162Z,17.60
2022-09-24T16:37:35.067Z,17.70
2022-09-24T16:40:04.185Z,17.50
2022-09-24T16:42:32.262Z,17.40
2022-09-24T16:45:00.292Z,17.40
2022-09-24T16:47:28.306Z,17.40
2022-09-24T16:49:57.779Z,17.50
2022-09-24T16:52:25.827Z,17.50
2022-09-24T16:54:53.784Z,17.30
2022-09-24T16:57:21.738Z,17.30
2022-09-24T16:59:49.749Z,17.20
2022-09-24T17:02:18.036Z,17.40
2022-09-24T17:04:46.192Z,17.50
2022-09-24T17:07:15.504Z,17.10
2022-09-24T17:10:00.953Z,16.90
2022-09-24T17:12:29.015Z,16.80
2022-09-24T17:14:57.749Z,16.50
2022-09-24T17:17:25.783Z,16.10
2022-09-24T17:19:53.732Z,15.90
2022-09-24T17:22:23.115Z,15.60
2022-09-24T17:24:52.344Z,15.40
2022-09-24T17:27:20.363Z,15.20
2022-09-24T17:29:48.301Z,15.00
2022-09-24T17:32:16.462Z,15.10
2022-09-24T17:34:46.078Z,15.00
2022-09-24T17:37:14.232Z,15.00
2022-09-24T17:39:43.521Z,15.00
2022-09-24T17:42:11.505Z,15.00
2022-09-24T17:44:39.489Z,14.90
2022-09-24T17:47:08.016Z,14.80
2022-09-24T17:49:36.124Z,14.80
2022-09-24T17:52:04.619Z,14.70
2022-09-24T17:54:32.619Z,14.70
2022-09-24T17:57:02.190Z,14.70
2022-09-24T17:59:30.281Z,14.50
2022-09-24T18:01:58.352Z,14.40
2022-09-24T18:04:28.127Z,14.50
2022-09-24T18:06:56.386Z,14.50
2022-09-24T18:09:24.352Z,14.50
2022-09-24T18:11:53.611Z,14.50
2022-09-24T18:14:24.169Z,14.50
2022-09-24T18:16:52.561Z,14.50
2022-09-24T18:19:21.012Z,14.40
2022-09-24T18:21:49.727Z,14.40
2022-09-24T18:24:17.918Z,14.40
2022-09-24T18:26:51.252Z,14.40
2022-09-24T18:29:21.094Z,14.40
2022-09-24T18:31:51.305Z,14.50
2022-09-24T18:34:19.369Z,14.50
2022-09-24T18:36:47.519Z,14.50
2022-09-24T18:39:21.824Z,14.50
2022-09-24T18:41:52.877Z,14.50
2022-09-24T18:44:20.839Z,14.60
2022-09-24T18:46:50.339Z,14.50
2022-09-24T18:49:19.338Z,14.50
2022-09-24T18:51:47.545Z,14.40
2022-09-24T18:54:18.089Z,14.40
2022-09-24T18:56:46.693Z,14.30
2022-09-24T18:59:17.183Z,14.30
2022-09-24T19:01:47.541Z,14.40
2022-09-24T19:04:18.315Z,14.30
2022-09-24T19:06:49.726Z,14.40
2022-09-24T19:09:20.155Z,14.50
2022-09-24T19:11:48.938Z,14.40
2022-09-24T19:14:18.946Z,14.30
2022-09-24T19:16:48.062Z,14.30
2022-09-24T19:19:17.537Z,14.40
2022-09-24T19:21:45.709Z,14.30
2022-09-24T19:24:13.735Z,14.30
2022-09-24T19:26:41.893Z,14.40
2022-09-24T19:29:09.981Z,14.30
2022-09-24T19:31:40.981Z,14.40
2022-09-24T19:34:13.096Z,14.50
2022-09-24T19:36:45.019Z,14.50
2022-09-24T19:39:15.988Z,14.60
2022-09-24T19:41:44.807Z,14.80
2022-09-24T19:44:13.836Z,14.80
2022-09-24T19:46:44.511Z,14.70
2022-09-24T19:49:13.654Z,14.50
2022-09-24T19:51:43.053Z,14.60
2022-09-24T19:54:12.184Z,14.80
2022-09-24T19:56:41.392Z,14.80
2022-09-24T19:59:11.984Z,14.70
2022-09-24T20:01:40.456Z,14.60
2022-09-24T20:04:09.221Z,14.50
2022-09-24T20:06:38.714Z,14.50
2022-09-24T20:09:10.111Z,14.50
2022-09-24T20:11:38.125Z,14.50
2022-09-24T20:14:08.886Z,14.50
2022-09-24T20:16:42.656Z,14.60
2022-09-24T20:19:13.870Z,14.60
2022-09-24T20:21:42.073Z,14.60
2022-09-24T20:24:13.316Z,14.60
2022-09-24T20:26:58.769Z,14.50
2022-09-24T20:29:26.910Z,14.30
2022-09-24T20:31:56.817Z,14.30
2022-09-24T20:34:28.614Z,14.20
2022-09-24T20:36:58.480Z,14.20
2022-09-24T20:39:28.661Z,14.20
2022-09-24T20:41:57.396Z,14.30
2022-09-24T20:44:26.065Z,14.30
2022-09-24T20:46:54.068Z,14.30
2022-09-24T20:49:24.242Z,14.20
2022-09-24T20:51:56.931Z,14.20
2022-09-24T20:54:28.172Z,14.20
2022-09-24T20:56:56.641Z,14.40
2022-09-24T20:59:25.488Z,14.40
2022-09-24T21:01:54.348Z,14.40
2022-09-24T21:04:22.707Z,14.30
2022-09-24T21:06:51.535Z,14.30
2022-09-24T21:09:19.935Z,14.30
2022-09-24T21:11:50.386Z,14.30
2022-09-24T21:14:18.543Z,14.30
2022-09-24T21:16:48.291Z,14.20
2022-09-24T21:19:16.826Z,14.20
2022-09-24T21:21:44.939Z,14.20
2022-09-24T21:24:15.275Z,14.10
2022-09-24T21:26:45.032Z,14.10
2022-09-24T21:29:18.270Z,13.90
2022-09-24T21:31:48.633Z,14.00
2022-09-24T21:34:20.603Z,14.00
2022-09-24T21:36:48.740Z,14.10
2022-09-24T21:39:23.067Z,14.00
2022-09-24T21:41:52.923Z,14.00
2022-09-24T21:44:22.670Z,14.00
2022-09-24T21:46:55.900Z,14.00
2022-09-24T21:49:24.426Z,14.10
2022-09-24T21:51:57.547Z,14.00
2022-09-24T21:54:25.596Z,14.00
2022-09-24T21:56:54.245Z,14.00
2022-09-24T21:59:41.044Z,14.00
2022-09-24T22:02:10.132Z,14.00
2022-09-24T22:04:42.701Z,13.90
2022-09-24T22:07:10.949Z,13.90
2022-09-24T22:09:39.038Z,13.90
2022-09-24T22:12:07.149Z,13.90
2022-09-24T22:14:37.189Z,13.90
2022-09-24T22:17:07.389Z,13.90
2022-09-24T22:19:35.490Z,13.80
2022-09-24T22:22:03.773Z,13.90
2022-09-24T22:24:32.700Z,13.90
2022-09-24T22:27:00.764Z,13.90
2022-09-24T22:29:28.926Z,14.00
2022-09-24T22:31:58.268Z,13.90
2022-09-24T22:34:43.922Z,13.80
2022-09-24T22:37:11.996Z,13.80
2022-09-24T22:39:40.038Z,13.80
2022-09-24T22:42:08.126Z,13.80
2022-09-24T22:44:36.113Z,13.80
2022-09-24T22:47:05.580Z,13.90
2022-09-24T22:49:33.592Z,13.80
2022-09-24T22:52:02.267Z,13.80
2022-09-24T22:54:30.426Z,13.90
2022-09-24T22:56:58.471Z,13.80
2022-09-24T22:59:26.462Z,13.80
2022-09-24T23:01:54.476Z,13.80
2022-09-24T23:04:24.118Z,13.80
2022-09-24T23:06:52.169Z,13.90
2022-09-24T23:09:20.887Z,13.90
2022-09-24T23:11:48.844Z,14.10
2022-09-24T23:14:17.577Z,14.00
2022-09-24T23:16:46.735Z,14.00
2022-09-24T23:19:17.873Z,13.90
2022-09-24T23:21:47.723Z,13.90
2022-09-24T23:24:18.513Z,13.90
2022-09-24T23:26:47.527Z,13.90
2022-09-24T23:29:16.230Z,13.80
2022-09-24T23:31:44.482Z,13.80
2022-09-24T23:34:14.133Z,13.80
2022-09-24T23:36:42.601Z,13.90
2022-09-24T23:39:12.259Z,13.90
2022-09-24T23:41:40.274Z,13.90
2022-09-24T23:44:08.311Z,13.90
2022-09-24T23:46:36.354Z,13.90
2022-09-24T23:49:04.543Z,13.80
2022-09-24T23:51:32.552Z,13.70
2022-09-24T23:54:00.582Z,13.70
2022-09-24T23:56:29.958Z,13.80
2022-09-24T23:58:58.131Z,13.80
